createdAt,value
2023-02-15T00:02:51.285Z,25.00
2023-02-15T00:07:55.341Z,31.25
2023-02-15T00:12:59.309Z,27.75
2023-02-15T00:18:03.333Z,23.50
2023-02-15T00:23:07.860Z,21.50
2023-02-15T00:28:12.428Z,23.75
2023-02-15T00:33:17.052Z,26.25
2023-02-15T00:38:21.726Z,24.00
2023-02-15T00:43:27.384Z,26.50
2023-02-15T00:48:32.232Z,26.00
2023-02-15T00:53:36.705Z,22.25
2023-02-15T00:58:41.508Z,23.50
2023-02-15T01:03:48.279Z,23.00
2023-02-15T01:08:53.331Z,25.75
2023-02-15T01:13:59.313Z,22.00
2023-02-15T01:19:04.949Z,26.50
2023-02-15T01:24:14.198Z,30.25
2023-02-15T01:29:18.733Z,23.75
2023-02-15T01:34:23.238Z,23.25
2023-02-15T01:39:27.799Z,31.50
2023-02-15T01:44:52.039Z,26.75
2023-02-15T01:50:14.918Z,23.25
2023-02-15T01:55:19.627Z,31.00
2023-02-15T02:00:24.354Z,30.75
2023-02-15T02:05:29.129Z,30.50
2023-02-15T02:10:33.691Z,33.00
2023-02-15T02:15:38.255Z,27.00
2023-02-15T02:21:10.154Z,28.00
2023-02-15T02:26:32.694Z,33.00
2023-02-15T02:31:40.366Z,33.75
2023-02-15T02:36:52.329Z,26.75
2023-02-15T02:41:56.663Z,27.75
2023-02-15T02:47:19.283Z,30.50
2023-02-15T02:52:41.431Z,32.50
2023-02-15T02:57:57.088Z,33.75
2023-02-15T03:03:14.456Z,32.00
2023-02-15T03:08:24.436Z,33.50
2023-02-15T03:13:31.092Z,36.75
2023-02-15T03:18:40.733Z,39.75
2023-02-15T03:23:45.715Z,29.00
2023-02-15T03:28:53.926Z,30.00
2023-02-15T03:34:02.998Z,33.50
2023-02-15T03:39:27.824Z,29.50
2023-02-15T03:44:33.416Z,32.75
2023-02-15T03:49:44.994Z,37.25
2023-02-15T03:54:50.240Z,33.25
2023-02-15T04:00:12.969Z,33.00
2023-02-15T04:05:17.506Z,30.50
2023-02-15T04:10:40.160Z,37.25
2023-02-15T04:16:02.753Z,45.00
2023-02-15T04:21:25.878Z,41.00
2023-02-15T04:26:30.285Z,42.25
2023-02-15T04:31:34.924Z,48.25
2023-02-15T04:36:40.134Z,46.75
2023-02-15T04:41:44.516Z,46.75
2023-02-15T04:46:48.757Z,45.25
2023-02-15T04:51:53.230Z,45.50
2023-02-15T04:56:57.751Z,44.75
2023-02-15T05:02:02.440Z,45.50
2023-02-15T05:07:07.290Z,45.50
2023-02-15T05:12:11.864Z,43.75
2023-02-15T05:17:15.957Z,47.25
2023-02-15T05:22:19.977Z,45.25
2023-02-15T05:27:41.990Z,43.00
2023-02-15T05:32:46.221Z,39.75
2023-02-15T05:37:50.406Z,46.25
2023-02-15T05:42:54.681Z,41.00
2023-02-15T05:48:00.374Z,44.50
2023-02-15T05:53:04.572Z,48.25
2023-02-15T05:58:09.080Z,44.25
2023-02-15T06:03:13.257Z,46.00
2023-02-15T06:08:17.996Z,47.75
2023-02-15T06:13:22.052Z,45.25
2023-02-15T06:18:26.333Z,37.75
2023-02-15T06:23:30.942Z,47.00
2023-02-15T06:28:35.459Z,47.50
2023-02-15T06:33:40.746Z,41.75
2023-02-15T06:38:44.957Z,38.50
2023-02-15T06:43:49.227Z,45.25
2023-02-15T06:48:53.885Z,45.00
2023-02-15T06:53:58.451Z,45.25
2023-02-15T06:59:03.097Z,41.25
2023-02-15T07:04:07.834Z,43.75
2023-02-15T07:09:12.441Z,42.75
2023-02-15T07:14:16.828Z,45.75
2023-02-15T07:19:21.463Z,42.00
2023-02-15T07:24:26.136Z,37.25
2023-02-15T07:29:30.801Z,41.75
2023-02-15T07:34:35.563Z,34.00
2023-02-15T07:39:40.179Z,29.00
2023-02-15T07:44:44.250Z,33.75
2023-02-15T07:49:48.709Z,32.00
2023-02-15T07:54:53.019Z,44.25
2023-02-15T07:59:57.348Z,44.50
2023-02-15T08:05:01.703Z,33.50
2023-02-15T08:10:06.061Z,43.25
2023-02-15T08:15:10.413Z,43.25
2023-02-15T08:20:15.660Z,34.25
2023-02-15T08:25:19.900Z,36.25
2023-02-15T08:30:24.970Z,34.50
2023-02-15T08:35:29.938Z,38.75
2023-02-15T08:40:34.491Z,39.75
2023-02-15T08:45:39.001Z,33.50
2023-02-15T08:50:43.474Z,42.75
2023-02-15T08:55:48.050Z,26.00
2023-02-15T09:00:53.480Z,27.25
2023-02-15T09:06:04.225Z,46.50
2023-02-15T09:11:10.862Z,36.75
2023-02-15T09:16:15.317Z,36.75
2023-02-15T09:21:21.380Z,34.25
2023-02-15T09:26:26.852Z,35.75
2023-02-15T09:31:33.560Z,35.00
2023-02-15T09:36:38.953Z,57.25
2023-02-15T09:41:58.526Z,47.50
2023-02-15T09:47:20.915Z,40.75
2023-02-15T09:52:31.091Z,50.25
2023-02-15T09:57:53.485Z,38.50
2023-02-15T10:02:57.574Z,34.75
2023-02-15T10:08:16.406Z,42.00
2023-02-15T10:13:27.970Z,46.25
2023-02-15T10:18:41.619Z,41.25
2023-02-15T10:23:57.439Z,56.00
2023-02-15T10:29:11.463Z,43.25
2023-02-15T10:34:19.779Z,48.00
2023-02-15T10:39:27.044Z,45.50
2023-02-15T10:44:49.266Z,42.25
2023-02-15T10:50:05.408Z,40.00
2023-02-15T10:55:09.598Z,40.50
2023-02-15T11:00:14.224Z,41.75
2023-02-15T11:05:29.332Z,39.50
2023-02-15T11:10:48.960Z,41.25
2023-02-15T11:15:59.020Z,40.00
2023-02-15T11:21:06.428Z,34.50
2023-02-15T11:26:19.952Z,35.50
2023-02-15T11:31:26.493Z,38.25
2023-02-15T11:36:36.193Z,44.00
2023-02-15T11:41:43.914Z,32.75
2023-02-15T11:46:48.368Z,36.25
2023-02-15T11:51:53.550Z,37.50
2023-02-15T11:57:02.174Z,41.00
2023-02-15T12:02:18.329Z,42.75
2023-02-15T12:07:27.874Z,37.00
2023-02-15T12:12:37.174Z,41.50
2023-02-15T12:17:43.337Z,34.75
2023-02-15T12:22:53.167Z,38.00
2023-02-15T12:27:58.375Z,41.00
2023-02-15T12:33:26.499Z,39.75
2023-02-15T12:38:32.847Z,47.75
2023-02-15T12:43:38.974Z,50.25
2023-02-15T12:48:43.664Z,48.50
2023-02-15T12:53:48.344Z,44.50
2023-02-15T12:59:06.845Z,45.00
2023-02-15T13:04:24.590Z,40.25
2023-02-15T13:09:40.266Z,43.25
2023-02-15T13:14:49.318Z,46.25
2023-02-15T13:19:56.678Z,39.00
2023-02-15T13:25:04.413Z,36.50
2023-02-15T13:30:21.186Z,48.50
2023-02-15T13:35:27.664Z,39.00
2023-02-15T13:40:51.656Z,37.25
2023-02-15T13:46:02.252Z,36.00
2023-02-15T13:51:20.053Z,45.25
2023-02-15T13:56:24.532Z,36.50
2023-02-15T14:01:45.139Z,39.50
2023-02-15T14:06:52.436Z,46.25
2023-02-15T14:12:02.318Z,40.25
2023-02-15T14:17:16.954Z,39.25
2023-02-15T14:22:26.635Z,35.25
2023-02-15T14:27:31.286Z,38.50
2023-02-15T14:32:54.116Z,44.00
2023-02-15T14:38:01.437Z,38.25
2023-02-15T14:43:05.642Z,42.00
2023-02-15T14:48:23.441Z,36.75
2023-02-15T14:53:33.533Z,35.25
2023-02-15T14:58:41.148Z,41.25
2023-02-15T15:03:50.823Z,40.25
2023-02-15T15:09:01.477Z,46.00
2023-02-15T15:14:06.365Z,48.25
2023-02-15T15:19:14.254Z,38.00
2023-02-15T15:24:37.135Z,39.00
2023-02-15T15:29:42.722Z,41.25
2023-02-15T15:35:06.775Z,43.75
2023-02-15T15:40:20.729Z,45.00
2023-02-15T15:45:30.806Z,44.25
2023-02-15T15:50:35.564Z,37.50
2023-02-15T15:55:40.650Z,38.50
2023-02-15T16:00:59.733Z,40.00
2023-02-15T16:06:04.516Z,44.00
2023-02-15T16:11:29.583Z,45.75
2023-02-15T16:16:34.459Z,40.25
2023-02-15T16:21:39.483Z,47.50
2023-02-15T16:26:44.212Z,47.00
2023-02-15T16:32:05.393Z,40.75
2023-02-15T16:37:24.202Z,47.25
2023-02-15T16:42:28.632Z,47.25
2023-02-15T16:47:34.072Z,48.25
2023-02-15T16:52:38.648Z,43.50
2023-02-15T16:57:45.428Z,41.25
2023-02-15T17:03:15.895Z,42.00
2023-02-15T17:08:20.834Z,46.75
2023-02-15T17:13:24.954Z,42.25
2023-02-15T17:18:31.666Z,41.50
2023-02-15T17:23:38.529Z,47.25
2023-02-15T17:28:48.104Z,41.50
2023-02-15T17:33:53.022Z,42.00
2023-02-15T17:39:00.106Z,34.25
2023-02-15T17:44:05.192Z,43.75
2023-02-15T17:49:09.477Z,40.50
2023-02-15T17:54:31.954Z,41.75
2023-02-15T17:59:35.995Z,44.25
2023-02-15T18:04:58.153Z,43.50
2023-02-15T18:10:20.680Z,41.75
2023-02-15T18:15:25.391Z,45.00
2023-02-15T18:20:38.361Z,47.25
2023-02-15T18:25:44.251Z,41.75
2023-02-15T18:30:48.532Z,43.00
2023-02-15T18:35:52.777Z,41.50
2023-02-15T18:40:56.840Z,45.00
2023-02-15T18:46:01.088Z,41.50
2023-02-15T18:51:05.648Z,51.75
2023-02-15T18:56:14.551Z,45.50
2023-02-15T19:01:23.265Z,48.25
2023-02-15T19:06:27.412Z,45.75
2023-02-15T19:11:31.578Z,48.25
2023-02-15T19:16:37.131Z,50.25
2023-02-15T19:21:41.985Z,47.75
2023-02-15T19:26:46.723Z,56.00
2023-02-15T19:31:50.971Z,54.50
2023-02-15T19:36:55.935Z,48.50
2023-02-15T19:42:00.355Z,51.00
2023-02-15T19:47:04.455Z,52.75
2023-02-15T19:52:15.317Z,49.75
2023-02-15T19:57:19.441Z,54.50
2023-02-15T20:02:23.496Z,51.25
2023-02-15T20:07:29.009Z,55.75
2023-02-15T20:12:33.145Z,52.75
2023-02-15T20:17:37.240Z,51.50
2023-02-15T20:22:42.455Z,53.25
2023-02-15T20:27:46.504Z,51.75
2023-02-15T20:32:50.855Z,48.25
2023-02-15T20:37:56.307Z,58.25
2023-02-15T20:43:00.406Z,51.25
2023-02-15T20:48:05.117Z,55.00
2023-02-15T20:53:11.053Z,48.25
2023-02-15T20:58:22.838Z,47.00
2023-02-15T21:03:31.907Z,37.75
2023-02-15T21:08:37.085Z,40.50
2023-02-15T21:13:47.683Z,46.75
2023-02-15T21:18:51.806Z,41.75
2023-02-15T21:23:56.140Z,47.50
2023-02-15T21:29:00.287Z,46.25
2023-02-15T21:34:04.455Z,36.50
2023-02-15T21:39:08.765Z,47.25
2023-02-15T21:44:37.158Z,44.50
2023-02-15T21:49:41.292Z,44.00
2023-02-15T21:54:45.475Z,43.75
2023-02-15T21:59:49.610Z,42.00
2023-02-15T22:04:54.008Z,43.00
2023-02-15T22:09:58.037Z,45.00
2023-02-15T22:15:03.018Z,42.50
2023-02-15T22:20:13.778Z,34.00
2023-02-15T22:25:19.498Z,36.25
2023-02-15T22:30:29.241Z,40.75
2023-02-15T22:35:35.644Z,39.00
2023-02-15T22:40:39.751Z,36.50
2023-02-15T22:45:43.979Z,41.75
2023-02-15T22:50:48.118Z,39.00
2023-02-15T22:55:52.616Z,38.50
2023-02-15T23:00:56.724Z,38.25
2023-02-15T23:06:00.870Z,40.75
2023-02-15T23:11:05.232Z,31.75
2023-02-15T23:16:14.560Z,33.25
2023-02-15T23:21:26.478Z,48.75
2023-02-15T23:26:33.255Z,36.75
2023-02-15T23:31:38.171Z,39.00
2023-02-15T23:36:42.770Z,43.25
2023-02-15T23:41:47.437Z,47.00
2023-02-15T23:46:52.525Z,53.50
2023-02-15T23:51:57.740Z,47.50
2023-02-15T23:57:03.256Z,49.25
